createdAt,value
2019-04-26T00:00:42.837Z,"  63.72"
2019-04-26T00:01:42.886Z,"  64.38"
2019-04-26T00:02:42.849Z,"  63.53"
2019-04-26T00:03:43.588Z,"  63.77"
2019-04-26T00:04:42.830Z,"  63.87"
2019-04-26T00:05:42.835Z,"  63.86"
2019-04-26T00:06:42.839Z,"  64.35"
2019-04-26T00:07:42.901Z,"  64.31"
2019-04-26T00:08:42.823Z,"  64.39"
2019-04-26T00:09:42.814Z,"  63.29"
2019-04-26T00:10:42.830Z,"  64.71"
2019-04-26T00:11:42.822Z,"  64.23"
2019-04-26T00:12:42.827Z,"  64.74"
2019-04-26T00:13:42.825Z,"  65.41"
2019-04-26T00:14:42.830Z,"  64.98"
2019-04-26T00:15:42.799Z,"  64.97"
2019-04-26T00:16:42.906Z,"  64.49"
2019-04-26T00:17:42.837Z,"  64.17"
2019-04-26T00:18:42.808Z,"  64.33"
2019-04-26T00:19:42.810Z,"  65.19"
2019-04-26T00:20:42.802Z,"  65.10"
2019-04-26T00:21:42.833Z,"  66.42"
2019-04-26T00:22:42.809Z,"  66.58"
2019-04-26T00:23:42.842Z,"  66.88"
2019-04-26T00:24:42.938Z,"  66.31"
2019-04-26T00:25:43.222Z,"  66.25"
2019-04-26T00:26:42.891Z,"  65.89"
2019-04-26T00:27:42.843Z,"  65.40"
2019-04-26T00:28:42.825Z,"  65.41"
2019-04-26T00:29:42.802Z,"  64.97"
2019-04-26T00:30:42.769Z,"  65.72"
2019-04-26T00:31:42.827Z,"  65.12"
2019-04-26T00:32:42.809Z,"  65.15"
2019-04-26T00:33:42.803Z,"  65.41"
2019-04-26T00:34:42.787Z,"  66.56"
2019-04-26T00:35:47.859Z,"  66.77"
2019-04-26T00:36:42.814Z,"  66.73"
2019-04-26T00:37:42.793Z,"  65.96"
2019-04-26T00:38:42.786Z,"  65.86"
2019-04-26T00:39:42.769Z,"  65.69"
2019-04-26T00:40:42.775Z,"  65.94"
2019-04-26T00:41:43.010Z,"  65.22"
2019-04-26T00:42:42.770Z,"  65.79"
2019-04-26T00:43:42.784Z,"  65.62"
2019-04-26T00:44:42.784Z,"  66.06"
2019-04-26T00:45:42.808Z,"  66.14"
2019-04-26T00:46:42.926Z,"  65.23"
2019-04-26T00:47:42.886Z,"  65.60"
2019-04-26T00:48:42.773Z,"  65.48"
2019-04-26T00:49:43.883Z,"  65.87"
2019-04-26T00:50:42.833Z,"  65.18"
2019-04-26T00:51:42.994Z,"  66.71"
2019-04-26T00:52:42.800Z,"  67.51"
2019-04-26T00:53:42.785Z,"  66.35"
2019-04-26T00:54:42.778Z,"  65.87"
2019-04-26T00:55:42.783Z,"  66.31"
2019-04-26T00:56:42.785Z,"  66.04"
2019-04-26T00:57:42.761Z,"  65.97"
2019-04-26T00:58:42.755Z,"  66.19"
2019-04-26T00:59:42.769Z,"  66.49"
2019-04-26T01:00:42.779Z,"  67.46"
2019-04-26T01:01:42.777Z,"  66.70"
2019-04-26T01:02:42.761Z,"  67.95"
2019-04-26T01:03:42.750Z,"  67.52"
2019-04-26T01:04:42.746Z,"  67.26"
2019-04-26T01:05:42.761Z,"  67.18"
2019-04-26T01:06:42.743Z,"  66.66"
2019-04-26T01:07:42.733Z,"  66.51"
2019-04-26T01:08:42.810Z,"  67.07"
2019-04-26T01:09:42.986Z,"  67.97"
2019-04-26T01:10:42.726Z,"  67.50"
2019-04-26T01:11:42.744Z,"  66.95"
2019-04-26T01:12:42.741Z,"  67.00"
2019-04-26T01:13:42.738Z,"  66.84"
2019-04-26T01:14:42.738Z,"  67.11"
2019-04-26T01:15:42.730Z,"  66.81"
2019-04-26T01:16:42.730Z,"  67.22"
2019-04-26T01:17:42.742Z,"  66.87"
2019-04-26T01:18:42.744Z,"  66.74"
2019-04-26T01:19:42.737Z,"  66.56"
2019-04-26T01:20:42.761Z,"  66.09"
2019-04-26T01:21:42.757Z,"  67.03"
2019-04-26T01:22:42.725Z,"  66.53"
2019-04-26T01:23:42.724Z,"  67.18"
2019-04-26T01:24:42.768Z,"  67.44"
2019-04-26T01:25:42.763Z,"  67.41"
2019-04-26T01:26:42.761Z,"  66.91"
2019-04-26T01:27:42.730Z,"  66.34"
2019-04-26T01:28:42.729Z,"  67.44"
2019-04-26T01:29:42.750Z,"  67.06"
2019-04-26T01:30:43.342Z,"  67.79"
2019-04-26T01:31:42.742Z,"  68.46"
2019-04-26T01:32:42.785Z,"  67.90"
2019-04-26T01:33:44.604Z,"  67.53"
2019-04-26T01:34:42.714Z,"  67.80"
2019-04-26T01:35:42.695Z,"  67.32"
2019-04-26T01:36:42.705Z,"  67.34"
2019-04-26T01:37:43.070Z,"  68.76"
2019-04-26T01:38:42.732Z,"  67.79"
2019-04-26T01:39:42.729Z,"  67.83"
2019-04-26T01:40:42.682Z,"  68.44"
2019-04-26T01:41:42.694Z,"  67.86"
2019-04-26T01:42:42.799Z,"  68.28"
2019-04-26T01:43:42.710Z,"  68.53"
2019-04-26T01:44:42.686Z,"  67.85"
2019-04-26T01:45:42.707Z,"  67.89"
2019-04-26T01:46:42.726Z,"  67.86"
2019-04-26T01:47:42.706Z,"  67.81"
2019-04-26T01:48:42.707Z,"  67.64"
2019-04-26T01:49:42.738Z,"  68.13"
2019-04-26T01:50:42.757Z,"  68.91"
2019-04-26T01:51:42.857Z,"  68.49"
2019-04-26T01:52:43.834Z,"  68.96"
2019-04-26T01:53:45.350Z,"  68.56"
2019-04-26T01:54:42.701Z,"  68.01"
2019-04-26T01:55:42.702Z,"  67.77"
2019-04-26T01:56:42.680Z,"  68.53"
2019-04-26T01:57:42.677Z,"  68.00"
2019-04-26T01:58:42.693Z,"  67.72"
2019-04-26T01:59:42.661Z,"  69.22"
2019-04-26T02:00:42.670Z,"  69.59"
2019-04-26T02:01:42.689Z,"  68.63"
2019-04-26T02:02:42.705Z,"  68.85"
2019-04-26T02:03:42.734Z,"  69.05"
2019-04-26T02:04:42.703Z,"  68.51"
2019-04-26T02:05:42.662Z,"  68.06"
2019-04-26T02:06:42.683Z,"  67.82"
2019-04-26T02:07:42.687Z,"  69.28"
2019-04-26T02:08:42.717Z,"  69.97"
2019-04-26T02:09:42.696Z,"  69.95"
2019-04-26T02:10:42.697Z,"  69.62"
2019-04-26T02:11:42.649Z,"  69.61"
2019-04-26T02:12:42.697Z,"  69.19"
2019-04-26T02:13:43.120Z,"  68.48"
2019-04-26T02:14:42.669Z,"  68.68"
2019-04-26T02:15:42.667Z,"  69.47"
2019-04-26T02:16:42.737Z,"  70.04"
2019-04-26T02:17:42.659Z,"  70.00"
2019-04-26T02:18:42.629Z,"  70.46"
2019-04-26T02:19:42.641Z,"  70.59"
2019-04-26T02:20:42.631Z,"  71.64"
2019-04-26T02:21:42.638Z,"  72.03"
2019-04-26T02:22:42.650Z,"  71.78"
2019-04-26T02:23:42.632Z,"  72.32"
2019-04-26T02:24:42.682Z,"  72.46"
2019-04-26T02:25:42.684Z,"  71.79"
2019-04-26T02:26:42.630Z,"  71.69"
2019-04-26T02:27:42.672Z,"  70.59"
2019-04-26T02:28:42.637Z,"  70.91"
2019-04-26T02:29:42.653Z,"  70.83"
2019-04-26T02:30:42.635Z,"  70.35"
2019-04-26T02:31:42.787Z,"  70.96"
2019-04-26T02:32:42.624Z,"  72.09"
2019-04-26T02:33:42.639Z,"  71.77"
2019-04-26T02:34:42.694Z,"  72.85"
2019-04-26T02:35:42.735Z,"  73.38"
2019-04-26T02:36:55.177Z,"  73.45"
2019-04-26T02:37:42.641Z,"  72.77"
2019-04-26T02:38:42.646Z,"  72.50"
2019-04-26T02:39:42.669Z,"  72.75"
2019-04-26T02:40:42.623Z,"  73.34"
2019-04-26T02:41:42.686Z,"  73.93"
2019-04-26T02:42:42.642Z,"  73.85"
2019-04-26T02:43:42.637Z,"  73.92"
2019-04-26T02:44:42.603Z,"  74.35"
2019-04-26T02:45:42.634Z,"  74.33"
2019-04-26T02:46:42.640Z,"  74.09"
2019-04-26T02:47:42.723Z,"  73.75"
2019-04-26T02:48:42.681Z,"  73.71"
2019-04-26T02:49:42.599Z,"  73.28"
2019-04-26T02:50:42.587Z,"  73.46"
2019-04-26T02:51:42.605Z,"  73.21"
2019-04-26T02:52:42.678Z,"  73.00"
2019-04-26T02:53:42.899Z,"  72.63"
2019-04-26T02:54:42.597Z,"  72.93"
2019-04-26T02:55:42.795Z,"  72.49"
2019-04-26T02:56:42.574Z,"  72.95"
2019-04-26T02:57:42.614Z,"  72.19"
2019-04-26T02:58:42.677Z,"  71.81"
2019-04-26T02:59:42.633Z,"  71.58"
2019-04-26T03:00:42.748Z,"  72.64"
2019-04-26T03:01:42.583Z,"  72.51"
2019-04-26T03:02:42.589Z,"  72.20"
2019-04-26T03:03:42.576Z,"  71.60"
2019-04-26T03:04:42.631Z,"  71.47"
2019-04-26T03:05:42.615Z,"  71.80"
2019-04-26T03:06:42.839Z,"  72.18"
2019-04-26T03:07:42.790Z,"  72.43"
2019-04-26T03:08:42.799Z,"  72.26"
2019-04-26T03:09:43.181Z,"  71.70"
2019-04-26T03:10:43.432Z,"  71.30"
2019-04-26T03:11:43.386Z,"  71.02"
2019-04-26T03:12:43.182Z,"  70.77"
2019-04-26T03:13:43.707Z,"  71.72"
2019-04-26T03:14:42.593Z,"  72.61"
2019-04-26T03:15:42.722Z,"  71.73"
2019-04-26T03:16:43.010Z,"  72.23"
2019-04-26T03:17:43.104Z,"  72.63"
2019-04-26T03:18:42.935Z,"  72.97"
2019-04-26T03:19:43.120Z,"  73.23"
2019-04-26T03:20:42.545Z,"  73.10"
2019-04-26T03:21:43.762Z,"  73.19"
2019-04-26T03:22:42.775Z,"  72.70"
2019-04-26T03:23:57.095Z,"  72.05"
2019-04-26T03:24:42.673Z,"  72.54"
2019-04-26T03:25:42.701Z,"  72.50"
2019-04-26T03:26:43.337Z,"  72.69"
2019-04-26T03:27:43.511Z,"  72.70"
2019-04-26T03:28:43.705Z,"  72.68"
2019-04-26T03:29:43.808Z,"  72.53"
2019-04-26T03:30:49.036Z,"  72.17"
2019-04-26T03:31:52.328Z,"  71.67"
2019-04-26T03:32:50.526Z,"  72.16"
2019-04-26T03:33:48.706Z,"  73.07"
2019-04-26T03:34:48.973Z,"  73.21"
2019-04-26T03:35:52.360Z,"  73.86"
2019-04-26T03:36:44.214Z,"  74.24"
2019-04-26T03:37:44.333Z,"  74.44"
2019-04-26T03:38:43.529Z,"  74.48"
2019-04-26T03:39:44.403Z,"  74.32"
2019-04-26T03:40:44.265Z,"  74.23"
2019-04-26T03:41:44.009Z,"  74.02"
2019-04-26T03:42:44.063Z,"  73.40"
2019-04-26T03:43:43.192Z,"  73.74"
2019-04-26T03:44:43.835Z,"  73.62"
2019-04-26T03:45:44.499Z,"  73.78"
2019-04-26T03:46:43.672Z,"  73.64"
2019-04-26T03:47:44.526Z,"  73.63"
2019-04-26T03:48:43.647Z,"  73.64"
2019-04-26T03:49:44.203Z,"  73.81"
2019-04-26T03:50:42.896Z,"  73.53"
2019-04-26T03:51:43.040Z,"  73.48"
2019-04-26T03:52:43.672Z,"  73.60"
2019-04-26T03:53:44.004Z,"  74.09"
2019-04-26T03:54:42.826Z,"  74.00"
2019-04-26T03:55:43.706Z,"  74.05"
2019-04-26T03:56:43.557Z,"  74.07"
2019-04-26T03:57:44.228Z,"  73.59"
2019-04-26T03:58:43.612Z,"  73.93"
2019-04-26T03:59:43.758Z,"  73.69"
2019-04-26T04:00:43.371Z,"  73.71"
2019-04-26T04:01:44.105Z,"  73.98"
2019-04-26T04:02:43.573Z,"  74.16"
2019-04-26T04:03:43.939Z,"  74.36"
2019-04-26T04:04:43.274Z,"  73.94"
2019-04-26T04:05:44.220Z,"  73.42"
2019-04-26T04:06:58.124Z,"  73.07"
2019-04-26T04:07:48.099Z,"  73.33"
2019-04-26T04:08:43.859Z,"  72.86"
2019-04-26T04:09:42.864Z,"  72.24"
2019-04-26T04:10:44.098Z,"  72.35"
2019-04-26T04:11:44.452Z,"  72.15"
2019-04-26T04:12:44.432Z,"  72.05"
2019-04-26T04:13:45.645Z,"  72.00"
2019-04-26T04:14:44.062Z,"  73.84"
2019-04-26T04:15:44.112Z,"  74.30"
2019-04-26T04:16:43.627Z,"  74.41"
2019-04-26T04:17:45.384Z,"  73.84"
2019-04-26T04:18:43.849Z,"  74.33"
2019-04-26T04:19:43.869Z,"  73.61"
2019-04-26T04:20:43.143Z,"  72.76"
2019-04-26T04:21:43.154Z,"  73.00"
2019-04-26T04:22:43.944Z,"  72.67"
2019-04-26T04:23:43.532Z,"  73.39"
2019-04-26T04:24:43.386Z,"  72.91"
2019-04-26T04:25:44.263Z,"  72.60"
2019-04-26T04:26:43.418Z,"  73.10"
2019-04-26T04:27:44.045Z,"  73.48"
2019-04-26T04:28:43.930Z,"  74.84"
2019-04-26T04:29:48.548Z,"  74.43"
2019-04-26T04:30:43.539Z,"  73.93"
2019-04-26T04:31:44.186Z,"  75.97"
2019-04-26T04:32:43.827Z,"  76.14"
2019-04-26T04:33:43.657Z,"  75.98"
2019-04-26T04:34:43.984Z,"  75.40"
2019-04-26T04:35:44.264Z,"  75.10"
2019-04-26T04:36:44.067Z,"  75.33"
2019-04-26T04:38:01.897Z,"  75.32"
2019-04-26T04:38:44.045Z,"  76.31"
2019-04-26T04:39:44.266Z,"  76.31"
2019-04-26T04:40:42.681Z,"  77.55"
2019-04-26T04:41:42.975Z,"  77.41"
2019-04-26T04:42:43.651Z,"  76.98"
2019-04-26T04:43:44.568Z,"  77.49"
2019-04-26T04:44:44.353Z,"  78.46"
2019-04-26T04:45:43.552Z,"  78.03"
2019-04-26T04:46:43.829Z,"  78.87"
2019-04-26T04:47:45.106Z,"  77.87"
2019-04-26T04:48:44.325Z,"  79.05"
2019-04-26T04:49:43.052Z,"  79.80"
2019-04-26T04:50:43.378Z,"  80.39"
2019-04-26T04:51:44.172Z,"  80.24"
2019-04-26T04:52:43.230Z,"  80.20"
2019-04-26T04:53:43.436Z,"  80.69"
2019-04-26T04:54:43.233Z,"  80.87"
2019-04-26T04:55:44.436Z,"  80.50"
2019-04-26T04:56:43.632Z,"  81.99"
2019-04-26T04:57:43.862Z,"  81.92"
2019-04-26T04:58:43.218Z,"  82.11"
2019-04-26T04:59:42.447Z,"  81.71"
2019-04-26T05:00:43.043Z,"  82.65"
2019-04-26T05:01:42.857Z,"  82.69"
2019-04-26T05:02:43.450Z,"  83.25"
2019-04-26T05:03:43.552Z,"  82.78"
2019-04-26T05:04:42.744Z,"  83.42"
2019-04-26T05:05:43.516Z,"  82.82"
2019-04-26T05:06:42.832Z,"  82.46"
2019-04-26T05:07:43.846Z,"  81.66"
2019-04-26T05:08:42.895Z,"  81.34"
2019-04-26T05:09:43.903Z,"  82.52"
2019-04-26T05:10:44.183Z,"  82.77"
2019-04-26T05:11:43.358Z,"  82.07"
2019-04-26T05:12:42.407Z,"  81.86"
2019-04-26T05:13:42.418Z,"  82.86"
2019-04-26T05:14:42.430Z,"  82.25"
2019-04-26T05:15:42.393Z,"  82.24"
2019-04-26T05:16:42.411Z,"  83.02"
2019-04-26T05:17:42.393Z,"  82.33"
2019-04-26T05:18:42.413Z,"  82.83"
2019-04-26T05:19:42.402Z,"  82.01"
2019-04-26T05:20:42.418Z,"  82.07"
2019-04-26T05:21:42.399Z,"  82.18"
2019-04-26T05:22:42.442Z,"  81.99"
2019-04-26T05:23:42.411Z,"  82.01"
2019-04-26T05:24:42.442Z,"  82.25"
2019-04-26T05:25:42.397Z,"  82.82"
2019-04-26T05:26:42.554Z,"  83.02"
2019-04-26T05:27:42.576Z,"  83.61"
2019-04-26T05:28:42.465Z,"  83.10"
2019-04-26T05:29:42.441Z,"  83.26"
2019-04-26T05:30:42.407Z,"  83.81"
2019-04-26T05:31:42.397Z,"  84.22"
2019-04-26T05:32:42.390Z,"  83.73"
2019-04-26T05:33:42.379Z,"  83.75"
2019-04-26T05:34:42.401Z,"  83.56"
2019-04-26T05:35:42.410Z,"  83.55"
2019-04-26T05:36:42.397Z,"  84.10"
2019-04-26T05:37:42.430Z,"  84.09"
2019-04-26T05:38:43.298Z,"  84.08"
2019-04-26T05:39:42.412Z,"  83.97"
2019-04-26T05:40:42.393Z,"  83.98"
2019-04-26T05:41:42.399Z,"  84.50"
2019-04-26T05:42:42.382Z,"  83.82"
2019-04-26T05:43:42.414Z,"  83.41"
2019-04-26T05:44:42.367Z,"  84.56"
2019-04-26T05:45:42.412Z,"  83.87"
2019-04-26T05:46:42.431Z,"  84.00"
2019-04-26T05:47:42.413Z,"  83.53"
2019-04-26T05:48:42.658Z,"  83.52"
2019-04-26T05:49:43.310Z,"  84.56"
2019-04-26T05:50:42.354Z,"  84.68"
2019-04-26T05:51:42.360Z,"  84.77"
2019-04-26T05:52:42.375Z,"  84.79"
2019-04-26T05:53:42.420Z,"  84.17"
2019-04-26T05:54:42.397Z,"  84.43"
2019-04-26T05:55:42.387Z,"  84.00"
2019-04-26T05:56:42.367Z,"  85.10"
2019-04-26T05:57:42.358Z,"  85.15"
2019-04-26T05:58:42.409Z,"  85.10"
2019-04-26T05:59:42.397Z,"  84.94"
2019-04-26T06:00:42.334Z,"  84.02"
2019-04-26T06:01:42.343Z,"  84.56"
2019-04-26T06:02:42.378Z,"  84.58"
2019-04-26T06:03:42.595Z,"  84.43"
2019-04-26T06:04:42.354Z,"  84.78"
2019-04-26T06:05:42.403Z,"  84.97"
2019-04-26T06:06:42.333Z,"  85.55"
2019-04-26T06:07:42.387Z,"  85.83"
2019-04-26T06:08:42.353Z,"  85.30"
2019-04-26T06:09:42.407Z,"  85.27"
2019-04-26T06:10:43.407Z,"  84.72"
2019-04-26T06:11:42.349Z,"  85.36"
2019-04-26T06:12:42.365Z,"  85.25"
2019-04-26T06:13:42.424Z,"  85.66"
2019-04-26T06:14:42.338Z,"  85.23"
2019-04-26T06:15:42.329Z,"  85.32"
2019-04-26T06:16:42.426Z,"  84.77"
2019-04-26T06:17:42.378Z,"  84.76"
2019-04-26T06:18:42.366Z,"  84.66"
2019-04-26T06:19:42.336Z,"  85.44"
2019-04-26T06:20:42.390Z,"  85.03"
2019-04-26T06:21:42.433Z,"  85.75"
2019-04-26T06:22:42.380Z,"  85.68"
2019-04-26T06:23:42.386Z,"  85.26"
2019-04-26T06:24:42.432Z,"  85.57"
2019-04-26T06:25:42.369Z,"  85.53"
2019-04-26T06:26:42.462Z,"  86.08"
2019-04-26T06:27:42.345Z,"  85.71"
2019-04-26T06:28:42.337Z,"  85.53"
2019-04-26T06:29:42.305Z,"  85.18"
2019-04-26T06:30:45.665Z,"  85.40"
2019-04-26T06:31:42.329Z,"  85.70"
2019-04-26T06:32:42.422Z,"  85.24"
2019-04-26T06:33:42.331Z,"  85.94"
2019-04-26T06:34:42.324Z,"  86.50"
2019-04-26T06:35:42.322Z,"  85.63"
2019-04-26T06:36:42.495Z,"  85.61"
2019-04-26T06:37:42.341Z,"  85.71"
2019-04-26T06:38:43.984Z,"  86.19"
2019-04-26T06:39:42.314Z,"  86.11"
2019-04-26T06:40:42.336Z,"  85.75"
2019-04-26T06:41:42.338Z,"  85.71"
2019-04-26T06:42:42.289Z,"  84.79"
2019-04-26T06:43:42.545Z,"  85.42"
2019-04-26T06:44:42.329Z,"  85.04"
2019-04-26T06:45:42.294Z,"  85.19"
2019-04-26T06:46:42.265Z,"  84.95"
2019-04-26T06:47:42.309Z,"  84.48"
2019-04-26T06:48:42.346Z,"  85.06"
2019-04-26T06:49:42.291Z,"  85.29"
2019-04-26T06:50:42.402Z,"  85.42"
2019-04-26T06:51:42.375Z,"  85.89"
2019-04-26T06:52:42.465Z,"  85.10"
2019-04-26T06:53:42.315Z,"  84.99"
2019-04-26T06:54:42.381Z,"  84.57"
2019-04-26T06:55:42.283Z,"  84.60"
2019-04-26T06:56:42.311Z,"  84.73"
2019-04-26T06:57:42.270Z,"  84.54"
2019-04-26T06:58:42.340Z,"  85.09"
2019-04-26T06:59:42.311Z,"  84.48"
2019-04-26T07:00:42.318Z,"  83.90"
2019-04-26T07:01:42.314Z,"  83.72"
2019-04-26T07:02:42.329Z,"  84.76"
2019-04-26T07:03:42.410Z,"  84.47"
2019-04-26T07:04:42.312Z,"  84.96"
2019-04-26T07:05:42.398Z,"  84.81"
2019-04-26T07:06:42.314Z,"  84.62"
2019-04-26T07:07:42.281Z,"  85.27"
2019-04-26T07:08:42.291Z,"  85.18"
2019-04-26T07:09:42.260Z,"  86.00"
2019-04-26T07:10:42.282Z,"  86.26"
2019-04-26T07:11:42.281Z,"  85.98"
2019-04-26T07:12:42.257Z,"  85.86"
2019-04-26T07:13:42.299Z,"  85.36"
2019-04-26T07:14:42.578Z,"  85.58"
2019-04-26T07:15:42.898Z,"  85.89"
2019-04-26T07:16:42.296Z,"  86.33"
2019-04-26T07:17:42.546Z,"  85.61"
2019-04-26T07:18:42.454Z,"  85.93"
2019-04-26T07:19:42.294Z,"  85.68"
2019-04-26T07:20:42.265Z,"  85.77"
2019-04-26T07:21:42.265Z,"  86.64"
2019-04-26T07:22:42.299Z,"  85.78"
2019-04-26T07:23:42.263Z,"  85.65"
2019-04-26T07:24:42.256Z,"  85.89"
2019-04-26T07:25:42.273Z,"  85.93"
2019-04-26T07:26:42.316Z,"  85.83"
2019-04-26T07:27:42.241Z,"  86.05"
2019-04-26T07:28:42.327Z,"  86.48"
2019-04-26T07:29:42.342Z,"  86.04"
2019-04-26T07:30:42.226Z,"  85.91"
2019-04-26T07:31:42.230Z,"  85.72"
2019-04-26T07:32:42.303Z,"  85.87"
2019-04-26T07:33:42.294Z,"  86.35"
2019-04-26T07:34:42.242Z,"  86.79"
2019-04-26T07:35:42.255Z,"  86.85"
2019-04-26T07:36:42.373Z,"  86.33"
2019-04-26T07:37:42.268Z,"  85.91"
2019-04-26T07:38:42.304Z,"  85.94"
2019-04-26T07:39:42.277Z,"  86.19"
2019-04-26T07:40:42.238Z,"  86.58"
2019-04-26T07:41:42.277Z,"  86.18"
2019-04-26T07:42:42.283Z,"  85.98"
2019-04-26T07:43:42.257Z,"  85.82"
2019-04-26T07:44:42.229Z,"  85.39"
2019-04-26T07:45:42.224Z,"  85.81"
2019-04-26T07:46:42.204Z,"  86.34"
2019-04-26T07:47:42.213Z,"  86.27"
2019-04-26T07:48:42.221Z,"  86.15"
2019-04-26T07:49:42.194Z,"  86.00"
2019-04-26T07:50:42.204Z,"  85.43"
2019-04-26T07:51:42.205Z,"  85.71"
2019-04-26T07:52:43.997Z,"  86.10"
2019-04-26T07:53:42.298Z,"  86.06"
2019-04-26T07:54:42.209Z,"  87.10"
2019-04-26T07:55:43.105Z,"  87.15"
2019-04-26T07:56:42.207Z,"  86.30"
2019-04-26T07:57:42.452Z,"  86.72"
2019-04-26T07:58:42.307Z,"  86.33"
2019-04-26T07:59:42.185Z,"  86.80"
2019-04-26T08:00:45.028Z,"  86.60"
2019-04-26T08:01:42.233Z,"  86.88"
2019-04-26T08:02:42.250Z,"  86.48"
2019-04-26T08:03:42.227Z,"  87.05"
2019-04-26T08:04:42.213Z,"  86.62"
2019-04-26T08:05:42.251Z,"  86.45"
2019-04-26T08:06:43.118Z,"  86.67"
2019-04-26T08:07:42.158Z,"  86.69"
2019-04-26T08:08:42.238Z,"  87.56"
2019-04-26T08:09:42.182Z,"  86.11"
2019-04-26T08:10:42.266Z,"  86.43"
2019-04-26T08:11:42.160Z,"  87.04"
2019-04-26T08:12:42.189Z,"  87.37"
2019-04-26T08:13:43.346Z,"  86.68"
2019-04-26T08:14:42.165Z,"  86.92"
2019-04-26T08:15:42.156Z,"  87.40"
2019-04-26T08:16:42.183Z,"  88.72"
2019-04-26T08:17:42.173Z,"  88.66"
2019-04-26T08:18:42.155Z,"  88.17"
2019-04-26T08:19:42.309Z,"  88.24"
2019-04-26T08:20:42.160Z,"  88.20"
2019-04-26T08:21:42.487Z,"  87.24"
2019-04-26T08:22:42.207Z,"  87.93"
2019-04-26T08:23:42.474Z,"  87.27"
2019-04-26T08:24:42.190Z,"  87.78"
2019-04-26T08:25:42.141Z,"  87.60"
2019-04-26T08:26:42.133Z,"  87.86"
2019-04-26T08:27:42.157Z,"  87.50"
2019-04-26T08:28:42.133Z,"  87.43"
2019-04-26T08:29:42.459Z,"  87.77"
2019-04-26T08:30:44.932Z,"  87.52"
2019-04-26T08:31:42.149Z,"  87.28"
2019-04-26T08:32:42.175Z,"  87.97"
2019-04-26T08:33:48.531Z,"  86.68"
2019-04-26T08:34:42.166Z,"  87.14"
2019-04-26T08:35:44.462Z,"  87.22"
2019-04-26T08:36:42.112Z,"  87.88"
2019-04-26T08:37:42.122Z,"  87.95"
2019-04-26T08:38:42.125Z,"  87.90"
2019-04-26T08:39:45.512Z,"  88.56"
2019-04-26T08:40:42.166Z,"  88.08"
2019-04-26T08:41:42.150Z,"  87.89"
2019-04-26T08:42:42.149Z,"  88.41"
2019-04-26T08:43:42.115Z,"  88.62"
2019-04-26T08:44:42.189Z,"  87.40"
2019-04-26T08:45:44.115Z,"  87.36"
2019-04-26T08:46:42.178Z,"  86.79"
2019-04-26T08:47:42.158Z,"  86.86"
2019-04-26T08:48:42.145Z,"  87.21"
2019-04-26T08:49:42.107Z,"  87.89"
2019-04-26T08:50:42.359Z,"  88.57"
2019-04-26T08:51:42.171Z,"  88.36"
2019-04-26T08:52:42.127Z,"  88.07"
2019-04-26T08:53:42.120Z,"  87.89"
2019-04-26T08:54:42.140Z,"  87.89"
2019-04-26T08:55:42.125Z,"  88.08"
2019-04-26T08:56:42.094Z,"  87.80"
2019-04-26T08:57:42.130Z,"  87.71"
2019-04-26T08:58:42.102Z,"  87.44"
2019-04-26T08:59:42.109Z,"  87.72"
2019-04-26T09:00:42.101Z,"  88.31"
2019-04-26T09:01:42.147Z,"  88.22"
2019-04-26T09:02:42.271Z,"  88.01"
2019-04-26T09:03:42.130Z,"  88.32"
2019-04-26T09:04:43.034Z,"  88.19"
2019-04-26T09:05:45.567Z,"  88.53"
2019-04-26T09:06:42.286Z,"  88.45"
2019-04-26T09:07:42.093Z,"  88.61"
2019-04-26T09:08:43.576Z,"  87.88"
2019-04-26T09:09:42.077Z,"  86.99"
2019-04-26T09:10:43.177Z,"  87.63"
2019-04-26T09:11:42.117Z,"  87.57"
2019-04-26T09:12:42.671Z,"  87.86"
2019-04-26T09:13:42.130Z,"  88.16"
2019-04-26T09:14:42.053Z,"  88.24"
2019-04-26T09:15:42.089Z,"  88.50"
2019-04-26T09:16:50.107Z,"  88.76"
2019-04-26T09:17:42.061Z,"  89.51"
2019-04-26T09:18:43.875Z,"  88.89"
2019-04-26T09:19:42.109Z,"  89.32"
2019-04-26T09:20:42.867Z,"  89.27"
2019-04-26T09:21:42.090Z,"  89.31"
2019-04-26T09:22:42.081Z,"  87.99"
2019-04-26T09:23:44.354Z,"  88.11"
2019-04-26T09:24:42.210Z,"  88.05"
2019-04-26T09:25:42.124Z,"  88.62"
2019-04-26T09:26:42.591Z,"  87.80"
2019-04-26T09:27:42.113Z,"  87.26"
2019-04-26T09:28:42.128Z,"  86.92"
2019-04-26T09:29:42.041Z,"  88.13"
2019-04-26T09:30:44.066Z,"  88.11"
2019-04-26T09:31:42.058Z,"  88.33"
2019-04-26T09:32:42.081Z,"  89.29"
2019-04-26T09:33:42.071Z,"  88.22"
2019-04-26T09:34:42.835Z,"  87.96"
2019-04-26T09:35:42.078Z,"  87.64"
2019-04-26T09:36:42.114Z,"  87.63"
2019-04-26T09:37:42.049Z,"  87.52"
2019-04-26T09:38:42.061Z,"  88.08"
2019-04-26T09:39:43.332Z,"  87.09"
2019-04-26T09:40:42.060Z,"  87.15"
2019-04-26T09:41:42.031Z,"  86.66"
2019-04-26T09:42:42.929Z,"  87.04"
2019-04-26T09:43:42.025Z,"  87.53"
2019-04-26T09:44:43.021Z,"  87.62"
2019-04-26T09:45:43.013Z,"  87.75"
2019-04-26T09:46:44.358Z,"  87.30"
2019-04-26T09:47:42.036Z,"  87.52"
2019-04-26T09:48:42.065Z,"  87.78"
2019-04-26T09:49:42.295Z,"  87.45"
2019-04-26T09:50:42.391Z,"  87.13"
2019-04-26T09:51:42.085Z,"  87.48"
2019-04-26T09:52:42.095Z,"  87.49"
2019-04-26T09:53:43.342Z,"  87.87"
2019-04-26T09:54:42.040Z,"  87.85"
2019-04-26T09:55:42.025Z,"  87.38"
2019-04-26T09:56:42.028Z,"  87.64"
2019-04-26T09:57:41.999Z,"  87.74"
2019-04-26T09:58:42.060Z,"  88.11"
2019-04-26T09:59:42.020Z,"  88.10"
2019-04-26T10:00:44.070Z,"  87.97"
2019-04-26T10:01:42.006Z,"  87.79"
2019-04-26T10:02:42.049Z,"  88.27"
2019-04-26T10:03:42.096Z,"  87.40"
2019-04-26T10:04:42.023Z,"  87.73"
2019-04-26T10:05:42.039Z,"  87.51"
2019-04-26T10:06:42.178Z,"  87.30"
2019-04-26T10:07:42.057Z,"  87.69"
2019-04-26T10:08:43.416Z,"  87.71"
2019-04-26T10:09:42.072Z,"  87.91"
2019-04-26T10:12:42.009Z,"  87.96"
2019-04-26T10:13:42.014Z,"  87.49"
2019-04-26T10:14:41.997Z,"  87.65"
2019-04-26T10:15:42.033Z,"  87.92"
2019-04-26T10:16:42.343Z,"  88.00"
2019-04-26T10:17:41.979Z,"  88.15"
2019-04-26T10:18:41.978Z,"  88.78"
2019-04-26T10:19:42.004Z,"  88.68"
2019-04-26T10:20:42.274Z,"  88.89"
2019-04-26T10:21:42.008Z,"  88.57"
2019-04-26T10:22:42.089Z,"  88.68"
2019-04-26T10:23:41.948Z,"  88.28"
2019-04-26T10:24:41.994Z,"  88.26"
2019-04-26T10:25:42.021Z,"  88.64"
2019-04-26T10:26:41.994Z,"  88.47"
2019-04-26T10:27:42.570Z,"  87.49"
2019-04-26T10:28:42.088Z,"  88.88"
2019-04-26T10:29:41.969Z,"  87.60"
2019-04-26T10:30:43.986Z,"  87.70"
2019-04-26T10:31:42.098Z,"  87.47"
2019-04-26T10:32:41.978Z,"  86.69"
2019-04-26T10:33:41.970Z,"  86.98"
2019-04-26T10:34:42.736Z,"  87.49"
2019-04-26T10:35:42.065Z,"  87.26"
2019-04-26T10:36:42.001Z,"  86.54"
2019-04-26T10:37:43.894Z,"  86.41"
2019-04-26T10:38:41.979Z,"  87.20"
2019-04-26T10:39:41.979Z,"  87.27"
2019-04-26T10:40:41.990Z,"  86.78"
2019-04-26T10:41:42.000Z,"  86.58"
2019-04-26T10:42:41.970Z,"  87.10"
2019-04-26T10:43:42.132Z,"  86.46"
2019-04-26T10:44:41.982Z,"  86.25"
2019-04-26T10:45:45.393Z,"  86.32"
2019-04-26T10:46:54.826Z,"  87.30"
2019-04-26T10:47:41.975Z,"  87.22"
2019-04-26T10:48:45.588Z,"  86.36"
2019-04-26T10:49:41.956Z,"  86.49"
2019-04-26T10:50:42.122Z,"  86.76"
2019-04-26T10:51:42.847Z,"  86.56"
2019-04-26T10:52:41.955Z,"  85.13"
2019-04-26T10:53:41.938Z,"  84.57"
2019-04-26T10:54:44.606Z,"  85.15"
2019-04-26T10:55:41.962Z,"  85.79"
2019-04-26T10:56:41.940Z,"  85.66"
2019-04-26T10:57:41.943Z,"  85.76"
2019-04-26T10:58:42.837Z,"  85.75"
2019-04-26T10:59:44.049Z,"  85.78"
2019-04-26T11:00:42.039Z,"  85.50"
2019-04-26T11:01:42.133Z,"  87.12"
2019-04-26T11:02:42.014Z,"  86.36"
2019-04-26T11:03:41.980Z,"  85.38"
2019-04-26T11:04:42.871Z,"  86.15"
2019-04-26T11:05:41.985Z,"  85.71"
2019-04-26T11:06:41.985Z,"  85.31"
2019-04-26T11:07:41.981Z,"  85.28"
2019-04-26T11:08:41.933Z,"  84.95"
2019-04-26T11:09:41.978Z,"  85.47"
2019-04-26T11:10:48.430Z,"  86.14"
2019-04-26T11:11:42.109Z,"  85.75"
2019-04-26T11:12:43.484Z,"  85.42"
2019-04-26T11:13:41.957Z,"  85.31"
2019-04-26T11:14:41.922Z,"  84.54"
2019-04-26T11:15:41.912Z,"  85.21"
2019-04-26T11:16:42.326Z,"  84.51"
2019-04-26T11:17:41.916Z,"  84.39"
2019-04-26T11:18:41.922Z,"  84.40"
2019-04-26T11:19:44.044Z,"  85.13"
2019-04-26T11:20:45.497Z,"  84.71"
2019-04-26T11:21:41.936Z,"  84.51"
2019-04-26T11:22:41.957Z,"  84.10"
2019-04-26T11:23:45.365Z,"  85.48"
2019-04-26T11:24:41.886Z,"  84.80"
2019-04-26T11:25:41.897Z,"  84.37"
2019-04-26T11:26:42.002Z,"  84.60"